sensor_id;sensor_type;location;lat;lon;timestamp;temperature;humidity
15959;DHT22;8078;47.822;9.402;2022-11-03T00:01:40;7.10;99.90
15959;DHT22;8078;47.822;9.402;2022-11-03T00:04:07;7.10;99.90
15959;DHT22;8078;47.822;9.402;2022-11-03T00:06:34;7.00;99.90
15959;DHT22;8078;47.822;9.402;2022-11-03T00:09:01;6.90;99.90
15959;DHT22;8078;47.822;9.402;2022-11-03T00:11:27;6.80;99.90
15959;DHT22;8078;47.822;9.402;2022-11-03T00:13:52;6.80;99.90
15959;DHT22;8078;47.822;9.402;2022-11-03T00:16:18;6.70;99.90
15959;DHT22;8078;47.822;9.402;2022-11-03T00:18:44;6.80;99.90
15959;DHT22;8078;47.822;9.402;2022-11-03T00:21:11;6.70;99.90
15959;DHT22;8078;47.822;9.402;2022-11-03T00:23:39;6.70;99.90
15959;DHT22;8078;47.822;9.402;2022-11-03T00:26:16;6.70;99.90
15959;DHT22;8078;47.822;9.402;2022-11-03T00:28:44;6.70;99.90
15959;DHT22;8078;47.822;9.402;2022-11-03T00:31:13;6.70;99.90
15959;DHT22;8078;47.822;9.402;2022-11-03T00:33:40;6.70;99.90
15959;DHT22;8078;47.822;9.402;2022-11-03T00:36:06;6.70;99.90
15959;DHT22;8078;47.822;9.402;2022-11-03T00:38:33;6.70;99.90
15959;DHT22;8078;47.822;9.402;2022-11-03T00:41:00;6.70;99.90
15959;DHT22;8078;47.822;9.402;2022-11-03T00:43:27;6.80;99.90
15959;DHT22;8078;47.822;9.402;2022-11-03T00:45:54;6.90;99.90
15959;DHT22;8078;47.822;9.402;2022-11-03T00:48:19;6.90;99.90
15959;DHT22;8078;47.822;9.402;2022-11-03T00:51:09;6.90;99.90
15959;DHT22;8078;47.822;9.402;2022-11-03T00:53:37;6.80;99.90
15959;DHT22;8078;47.822;9.402;2022-11-03T00:56:07;6.80;99.90
15959;DHT22;8078;47.822;9.402;2022-11-03T00:58:33;6.70;99.90
15959;DHT22;8078;47.822;9.402;2022-11-03T01:01:07;6.80;99.90
15959;DHT22;8078;47.822;9.402;2022-11-03T01:03:36;6.80;99.90
15959;DHT22;8078;47.822;9.402;2022-11-03T01:06:04;6.70;99.90
15959;DHT22;8078;47.822;9.402;2022-11-03T01:08:49;6.60;99.90
15959;DHT22;8078;47.822;9.402;2022-11-03T01:11:17;6.50;99.90
15959;DHT22;8078;47.822;9.402;2022-11-03T01:14:01;6.60;99.90
15959;DHT22;8078;47.822;9.402;2022-11-03T01:16:28;6.60;99.90
15959;DHT22;8078;47.822;9.402;2022-11-03T01:18:54;6.70;99.90
15959;DHT22;8078;47.822;9.402;2022-11-03T01:21:19;6.80;99.90
15959;DHT22;8078;47.822;9.402;2022-11-03T01:23:45;6.80;99.90
15959;DHT22;8078;47.822;9.402;2022-11-03T01:26:12;6.70;99.90
15959;DHT22;8078;47.822;9.402;2022-11-03T01:28:40;6.60;99.90
15959;DHT22;8078;47.822;9.402;2022-11-03T01:31:12;6.50;99.90
15959;DHT22;8078;47.822;9.402;2022-11-03T01:33:38;6.50;99.90
15959;DHT22;8078;47.822;9.402;2022-11-03T01:36:04;6.40;99.90
15959;DHT22;8078;47.822;9.402;2022-11-03T01:38:34;6.40;99.90
15959;DHT22;8078;47.822;9.402;2022-11-03T01:41:01;6.40;99.90
15959;DHT22;8078;47.822;9.402;2022-11-03T01:43:28;6.40;99.90
15959;DHT22;8078;47.822;9.402;2022-11-03T01:46:19;6.40;99.90
15959;DHT22;8078;47.822;9.402;2022-11-03T01:52:10;6.50;99.90
15959;DHT22;8078;47.822;9.402;2022-11-03T01:54:41;6.50;99.90
15959;DHT22;8078;47.822;9.402;2022-11-03T01:57:12;6.40;99.90
15959;DHT22;8078;47.822;9.402;2022-11-03T01:59:40;6.30;99.90
15959;DHT22;8078;47.822;9.402;2022-11-03T02:02:06;6.30;99.90
15959;DHT22;8078;47.822;9.402;2022-11-03T02:04:33;6.30;99.90
15959;DHT22;8078;47.822;9.402;2022-11-03T02:07:18;6.30;99.90
15959;DHT22;8078;47.822;9.402;2022-11-03T02:09:44;6.60;99.90
15959;DHT22;8078;47.822;9.402;2022-11-03T02:12:10;6.60;99.90
15959;DHT22;8078;47.822;9.402;2022-11-03T02:14:41;6.50;99.90
15959;DHT22;8078;47.822;9.402;2022-11-03T02:17:09;6.50;99.90
15959;DHT22;8078;47.822;9.402;2022-11-03T02:20:07;6.50;99.90
15959;DHT22;8078;47.822;9.402;2022-11-03T02:22:50;6.60;99.90
15959;DHT22;8078;47.822;9.402;2022-11-03T02:25:51;7.00;99.90
15959;DHT22;8078;47.822;9.402;2022-11-03T02:28:26;7.20;99.90
15959;DHT22;8078;47.822;9.402;2022-11-03T02:31:15;7.30;99.90
15959;DHT22;8078;47.822;9.402;2022-11-03T02:33:56;7.30;99.90
15959;DHT22;8078;47.822;9.402;2022-11-03T02:36:27;7.20;99.90
15959;DHT22;8078;47.822;9.402;2022-11-03T02:39:01;7.30;99.90
15959;DHT22;8078;47.822;9.402;2022-11-03T02:41:29;7.20;99.90
15959;DHT22;8078;47.822;9.402;2022-11-03T02:43:58;7.20;99.90
15959;DHT22;8078;47.822;9.402;2022-11-03T02:46:25;7.10;99.90
15959;DHT22;8078;47.822;9.402;2022-11-03T02:48:52;7.00;99.90
15959;DHT22;8078;47.822;9.402;2022-11-03T02:51:18;6.90;99.90
15959;DHT22;8078;47.822;9.402;2022-11-03T02:54:07;6.80;99.90
15959;DHT22;8078;47.822;9.402;2022-11-03T02:56:48;6.90;99.90
15959;DHT22;8078;47.822;9.402;2022-11-03T02:59:19;6.90;99.90
15959;DHT22;8078;47.822;9.402;2022-11-03T03:02:02;6.70;99.90
15959;DHT22;8078;47.822;9.402;2022-11-03T03:04:42;6.70;99.90
15959;DHT22;8078;47.822;9.402;2022-11-03T03:07:25;6.70;99.90
15959;DHT22;8078;47.822;9.402;2022-11-03T03:10:09;6.50;99.90
15959;DHT22;8078;47.822;9.402;2022-11-03T03:12:38;6.40;99.90
15959;DHT22;8078;47.822;9.402;2022-11-03T03:15:06;6.40;99.90
15959;DHT22;8078;47.822;9.402;2022-11-03T03:17:55;6.30;99.90
15959;DHT22;8078;47.822;9.402;2022-11-03T03:20:30;6.20;99.90
15959;DHT22;8078;47.822;9.402;2022-11-03T03:23:14;6.30;99.90
15959;DHT22;8078;47.822;9.402;2022-11-03T03:25:46;6.30;99.90
15959;DHT22;8078;47.822;9.402;2022-11-03T03:28:20;6.30;99.90
15959;DHT22;8078;47.822;9.402;2022-11-03T03:30:47;6.30;99.90
15959;DHT22;8078;47.822;9.402;2022-11-03T03:33:14;6.40;99.90
15959;DHT22;8078;47.822;9.402;2022-11-03T03:35:44;6.40;99.90
15959;DHT22;8078;47.822;9.402;2022-11-03T03:38:17;6.50;99.90
15959;DHT22;8078;47.822;9.402;2022-11-03T03:40:46;6.50;99.90
15959;DHT22;8078;47.822;9.402;2022-11-03T03:43:14;6.50;99.90
15959;DHT22;8078;47.822;9.402;2022-11-03T03:45:42;6.80;99.90
15959;DHT22;8078;47.822;9.402;2022-11-03T03:48:08;6.70;99.90
15959;DHT22;8078;47.822;9.402;2022-11-03T03:50:37;6.70;99.90
15959;DHT22;8078;47.822;9.402;2022-11-03T03:53:05;6.50;99.90
15959;DHT22;8078;47.822;9.402;2022-11-03T03:56:00;6.30;99.90
15959;DHT22;8078;47.822;9.402;2022-11-03T03:58:26;6.20;99.90
15959;DHT22;8078;47.822;9.402;2022-11-03T04:00:52;6.10;99.90
15959;DHT22;8078;47.822;9.402;2022-11-03T04:03:20;6.00;99.90
15959;DHT22;8078;47.822;9.402;2022-11-03T04:05:46;6.00;99.90
15959;DHT22;8078;47.822;9.402;2022-11-03T04:08:13;5.90;99.90
15959;DHT22;8078;47.822;9.402;2022-11-03T04:10:39;6.30;99.90
15959;DHT22;8078;47.822;9.402;2022-11-03T04:13:05;6.50;99.90
15959;DHT22;8078;47.822;9.402;2022-11-03T04:15:49;6.60;99.90
15959;DHT22;8078;47.822;9.402;2022-11-03T04:18:34;6.40;99.90
15959;DHT22;8078;47.822;9.402;2022-11-03T04:21:18;6.30;99.90
15959;DHT22;8078;47.822;9.402;2022-11-03T04:24:02;6.10;99.90
15959;DHT22;8078;47.822;9.402;2022-11-03T04:26:28;6.00;99.90
15959;DHT22;8078;47.822;9.402;2022-11-03T04:28:55;6.00;99.90
15959;DHT22;8078;47.822;9.402;2022-11-03T04:31:22;5.90;99.90
15959;DHT22;8078;47.822;9.402;2022-11-03T04:33:48;5.90;99.90
15959;DHT22;8078;47.822;9.402;2022-11-03T04:36:22;5.80;99.90
15959;DHT22;8078;47.822;9.402;2022-11-03T04:38:49;5.80;99.90
15959;DHT22;8078;47.822;9.402;2022-11-03T04:41:28;6.00;99.90
15959;DHT22;8078;47.822;9.402;2022-11-03T04:43:56;6.20;99.90
15959;DHT22;8078;47.822;9.402;2022-11-03T04:46:26;6.30;99.90
15959;DHT22;8078;47.822;9.402;2022-11-03T04:48:58;6.20;99.90
15959;DHT22;8078;47.822;9.402;2022-11-03T04:51:27;6.10;99.90
15959;DHT22;8078;47.822;9.402;2022-11-03T04:54:03;6.00;99.90
15959;DHT22;8078;47.822;9.402;2022-11-03T04:56:30;6.00;99.90
15959;DHT22;8078;47.822;9.402;2022-11-03T04:58:58;5.90;99.90
15959;DHT22;8078;47.822;9.402;2022-11-03T05:01:24;5.80;99.90
15959;DHT22;8078;47.822;9.402;2022-11-03T05:03:51;5.70;99.90
15959;DHT22;8078;47.822;9.402;2022-11-03T05:06:26;5.60;99.90
15959;DHT22;8078;47.822;9.402;2022-11-03T05:08:58;5.60;99.90
15959;DHT22;8078;47.822;9.402;2022-11-03T05:11:33;5.50;99.90
15959;DHT22;8078;47.822;9.402;2022-11-03T05:14:03;5.40;99.90
15959;DHT22;8078;47.822;9.402;2022-11-03T05:16:31;5.70;99.90
15959;DHT22;8078;47.822;9.402;2022-11-03T05:18:58;5.70;99.90
15959;DHT22;8078;47.822;9.402;2022-11-03T05:21:26;5.90;99.90
15959;DHT22;8078;47.822;9.402;2022-11-03T05:23:54;6.30;99.90
15959;DHT22;8078;47.822;9.402;2022-11-03T05:26:25;6.40;99.90
15959;DHT22;8078;47.822;9.402;2022-11-03T05:29:15;6.70;99.90
15959;DHT22;8078;47.822;9.402;2022-11-03T05:31:43;6.80;99.90
15959;DHT22;8078;47.822;9.402;2022-11-03T05:34:35;7.00;99.90
15959;DHT22;8078;47.822;9.402;2022-11-03T05:39:34;7.00;99.90
15959;DHT22;8078;47.822;9.402;2022-11-03T05:42:02;7.00;99.90
15959;DHT22;8078;47.822;9.402;2022-11-03T05:44:40;6.90;99.90
15959;DHT22;8078;47.822;9.402;2022-11-03T05:47:36;6.90;99.90
15959;DHT22;8078;47.822;9.402;2022-11-03T05:50:34;7.00;99.90
15959;DHT22;8078;47.822;9.402;2022-11-03T05:55:51;7.30;99.90
15959;DHT22;8078;47.822;9.402;2022-11-03T05:58:42;7.10;99.90
15959;DHT22;8078;47.822;9.402;2022-11-03T06:03:45;7.10;99.90
15959;DHT22;8078;47.822;9.402;2022-11-03T06:06:26;7.10;99.90
15959;DHT22;8078;47.822;9.402;2022-11-03T06:08:55;7.10;99.90
15959;DHT22;8078;47.822;9.402;2022-11-03T06:11:48;7.10;99.90
15959;DHT22;8078;47.822;9.402;2022-11-03T06:14:24;7.20;99.90
15959;DHT22;8078;47.822;9.402;2022-11-03T06:17:01;7.20;99.90
15959;DHT22;8078;47.822;9.402;2022-11-03T06:19:38;7.30;99.90
15959;DHT22;8078;47.822;9.402;2022-11-03T06:22:12;7.30;99.90
15959;DHT22;8078;47.822;9.402;2022-11-03T06:24:40;7.30;99.90
15959;DHT22;8078;47.822;9.402;2022-11-03T06:27:11;7.10;99.90
15959;DHT22;8078;47.822;9.402;2022-11-03T06:29:38;6.90;99.90
15959;DHT22;8078;47.822;9.402;2022-11-03T06:32:03;6.80;99.90
15959;DHT22;8078;47.822;9.402;2022-11-03T06:34:42;6.80;99.90
15959;DHT22;8078;47.822;9.402;2022-11-03T06:37:22;6.80;99.90
15959;DHT22;8078;47.822;9.402;2022-11-03T06:39:48;7.00;99.90
15959;DHT22;8078;47.822;9.402;2022-11-03T06:42:18;7.00;99.90
15959;DHT22;8078;47.822;9.402;2022-11-03T06:44:45;7.10;99.90
15959;DHT22;8078;47.822;9.402;2022-11-03T06:47:24;7.10;99.90
15959;DHT22;8078;47.822;9.402;2022-11-03T06:50:01;7.10;99.90
15959;DHT22;8078;47.822;9.402;2022-11-03T06:52:36;7.10;99.90
15959;DHT22;8078;47.822;9.402;2022-11-03T06:55:22;7.00;99.90
15959;DHT22;8078;47.822;9.402;2022-11-03T06:57:52;6.50;99.90
15959;DHT22;8078;47.822;9.402;2022-11-03T07:00:21;6.10;99.90
15959;DHT22;8078;47.822;9.402;2022-11-03T07:03:09;5.80;99.90
15959;DHT22;8078;47.822;9.402;2022-11-03T07:05:38;5.50;99.90
15959;DHT22;8078;47.822;9.402;2022-11-03T07:08:25;5.50;99.90
15959;DHT22;8078;47.822;9.402;2022-11-03T07:11:02;5.60;99.90
15959;DHT22;8078;47.822;9.402;2022-11-03T07:13:30;5.60;99.90
15959;DHT22;8078;47.822;9.402;2022-11-03T07:15:56;5.70;99.90
15959;DHT22;8078;47.822;9.402;2022-11-03T07:18:42;5.70;99.90
15959;DHT22;8078;47.822;9.402;2022-11-03T07:21:34;5.90;99.90
15959;DHT22;8078;47.822;9.402;2022-11-03T07:26:40;6.20;99.90
15959;DHT22;8078;47.822;9.402;2022-11-03T07:29:12;6.30;99.90
15959;DHT22;8078;47.822;9.402;2022-11-03T07:31:40;6.40;99.90
15959;DHT22;8078;47.822;9.402;2022-11-03T07:34:11;6.60;99.90
15959;DHT22;8078;47.822;9.402;2022-11-03T07:36:38;7.10;99.90
15959;DHT22;8078;47.822;9.402;2022-11-03T07:39:04;7.50;99.90
15959;DHT22;8078;47.822;9.402;2022-11-03T07:41:32;7.90;99.90
15959;DHT22;8078;47.822;9.402;2022-11-03T07:43:59;8.20;99.90
15959;DHT22;8078;47.822;9.402;2022-11-03T07:46:26;8.40;99.90
15959;DHT22;8078;47.822;9.402;2022-11-03T07:48:57;8.70;99.90
15959;DHT22;8078;47.822;9.402;2022-11-03T07:54:30;8.90;99.90
15959;DHT22;8078;47.822;9.402;2022-11-03T07:56:55;9.00;99.90
15959;DHT22;8078;47.822;9.402;2022-11-03T07:59:32;9.00;99.90
15959;DHT22;8078;47.822;9.402;2022-11-03T08:01:59;9.00;99.90
15959;DHT22;8078;47.822;9.402;2022-11-03T08:04:29;9.10;99.90
15959;DHT22;8078;47.822;9.402;2022-11-03T08:06:55;9.30;99.90
15959;DHT22;8078;47.822;9.402;2022-11-03T08:09:21;9.30;99.90
15959;DHT22;8078;47.822;9.402;2022-11-03T08:11:47;9.20;99.90
15959;DHT22;8078;47.822;9.402;2022-11-03T08:14:13;9.50;99.90
15959;DHT22;8078;47.822;9.402;2022-11-03T08:16:39;9.80;99.90
15959;DHT22;8078;47.822;9.402;2022-11-03T08:19:05;10.00;99.90
15959;DHT22;8078;47.822;9.402;2022-11-03T08:21:31;10.20;99.90
15959;DHT22;8078;47.822;9.402;2022-11-03T08:23:56;10.40;99.90
15959;DHT22;8078;47.822;9.402;2022-11-03T08:26:22;10.60;99.90
15959;DHT22;8078;47.822;9.402;2022-11-03T08:28:48;10.40;99.90
15959;DHT22;8078;47.822;9.402;2022-11-03T08:31:13;10.50;99.90
15959;DHT22;8078;47.822;9.402;2022-11-03T08:33:40;10.60;99.90
15959;DHT22;8078;47.822;9.402;2022-11-03T08:36:06;10.20;99.90
15959;DHT22;8078;47.822;9.402;2022-11-03T08:38:32;9.90;99.90
15959;DHT22;8078;47.822;9.402;2022-11-03T08:40:58;9.90;99.90
15959;DHT22;8078;47.822;9.402;2022-11-03T08:43:24;9.70;99.90
15959;DHT22;8078;47.822;9.402;2022-11-03T08:45:49;9.80;99.90
15959;DHT22;8078;47.822;9.402;2022-11-03T08:48:22;9.70;99.90
15959;DHT22;8078;47.822;9.402;2022-11-03T08:50:48;9.70;99.90
15959;DHT22;8078;47.822;9.402;2022-11-03T08:53:15;9.70;99.90
15959;DHT22;8078;47.822;9.402;2022-11-03T08:55:41;9.80;99.90
15959;DHT22;8078;47.822;9.402;2022-11-03T08:58:07;9.70;99.90
15959;DHT22;8078;47.822;9.402;2022-11-03T09:00:33;9.80;99.90
15959;DHT22;8078;47.822;9.402;2022-11-03T09:02:59;9.50;99.90
15959;DHT22;8078;47.822;9.402;2022-11-03T09:05:25;9.60;99.90
15959;DHT22;8078;47.822;9.402;2022-11-03T09:07:50;9.50;99.90
15959;DHT22;8078;47.822;9.402;2022-11-03T09:10:16;9.30;99.90
15959;DHT22;8078;47.822;9.402;2022-11-03T09:12:42;9.30;99.90
15959;DHT22;8078;47.822;9.402;2022-11-03T09:15:08;9.50;99.90
15959;DHT22;8078;47.822;9.402;2022-11-03T09:17:33;9.70;99.90
15959;DHT22;8078;47.822;9.402;2022-11-03T09:19:59;9.90;99.90
15959;DHT22;8078;47.822;9.402;2022-11-03T09:22:24;9.90;99.90
15959;DHT22;8078;47.822;9.402;2022-11-03T09:24:50;10.10;99.90
15959;DHT22;8078;47.822;9.402;2022-11-03T09:27:16;10.20;99.90
15959;DHT22;8078;47.822;9.402;2022-11-03T09:29:42;10.30;99.90
15959;DHT22;8078;47.822;9.402;2022-11-03T09:32:07;10.30;99.90
15959;DHT22;8078;47.822;9.402;2022-11-03T09:34:33;10.20;99.90
15959;DHT22;8078;47.822;9.402;2022-11-03T09:36:58;10.60;99.90
15959;DHT22;8078;47.822;9.402;2022-11-03T09:39:24;10.60;99.90
15959;DHT22;8078;47.822;9.402;2022-11-03T09:41:50;10.80;99.90
15959;DHT22;8078;47.822;9.402;2022-11-03T09:44:17;10.80;99.90
15959;DHT22;8078;47.822;9.402;2022-11-03T09:46:43;10.70;99.90
15959;DHT22;8078;47.822;9.402;2022-11-03T09:49:14;10.70;99.90
15959;DHT22;8078;47.822;9.402;2022-11-03T09:51:41;10.60;99.90
15959;DHT22;8078;47.822;9.402;2022-11-03T09:54:11;10.50;99.90
15959;DHT22;8078;47.822;9.402;2022-11-03T09:56:38;10.60;99.90
15959;DHT22;8078;47.822;9.402;2022-11-03T09:59:19;10.70;99.90
15959;DHT22;8078;47.822;9.402;2022-11-03T10:01:47;10.60;99.90
15959;DHT22;8078;47.822;9.402;2022-11-03T10:04:15;10.50;99.90
15959;DHT22;8078;47.822;9.402;2022-11-03T10:06:42;10.70;99.90
15959;DHT22;8078;47.822;9.402;2022-11-03T10:09:13;10.70;99.90
15959;DHT22;8078;47.822;9.402;2022-11-03T10:11:40;10.80;99.90
15959;DHT22;8078;47.822;9.402;2022-11-03T10:14:08;10.60;99.90
15959;DHT22;8078;47.822;9.402;2022-11-03T10:16:36;10.70;99.90
15959;DHT22;8078;47.822;9.402;2022-11-03T10:19:02;10.70;99.90
15959;DHT22;8078;47.822;9.402;2022-11-03T10:21:31;10.60;99.90
15959;DHT22;8078;47.822;9.402;2022-11-03T10:24:00;10.60;99.90
15959;DHT22;8078;47.822;9.402;2022-11-03T10:26:29;10.80;99.90
15959;DHT22;8078;47.822;9.402;2022-11-03T10:29:06;10.50;99.90
15959;DHT22;8078;47.822;9.402;2022-11-03T10:31:40;10.80;99.90
15959;DHT22;8078;47.822;9.402;2022-11-03T10:34:32;11.00;99.90
15959;DHT22;8078;47.822;9.402;2022-11-03T10:39:38;10.70;99.90
15959;DHT22;8078;47.822;9.402;2022-11-03T10:42:04;10.90;99.90
15959;DHT22;8078;47.822;9.402;2022-11-03T10:44:30;10.80;99.90
15959;DHT22;8078;47.822;9.402;2022-11-03T10:47:03;10.90;99.90
15959;DHT22;8078;47.822;9.402;2022-11-03T10:49:30;10.60;99.90
15959;DHT22;8078;47.822;9.402;2022-11-03T10:52:22;10.60;99.90
15959;DHT22;8078;47.822;9.402;2022-11-03T10:54:47;10.50;99.90
15959;DHT22;8078;47.822;9.402;2022-11-03T10:57:14;10.30;99.90
15959;DHT22;8078;47.822;9.402;2022-11-03T10:59:41;10.10;99.90
15959;DHT22;8078;47.822;9.402;2022-11-03T11:02:19;9.80;99.90
15959;DHT22;8078;47.822;9.402;2022-11-03T11:04:55;10.00;99.90
15959;DHT22;8078;47.822;9.402;2022-11-03T11:07:27;10.10;99.90
15959;DHT22;8078;47.822;9.402;2022-11-03T11:09:55;9.90;99.90
15959;DHT22;8078;47.822;9.402;2022-11-03T11:12:23;9.90;99.90
15959;DHT22;8078;47.822;9.402;2022-11-03T11:14:58;9.90;99.90
15959;DHT22;8078;47.822;9.402;2022-11-03T11:17:46;9.50;99.90
15959;DHT22;8078;47.822;9.402;2022-11-03T11:22:49;9.20;99.90
15959;DHT22;8078;47.822;9.402;2022-11-03T11:25:17;9.20;99.90
15959;DHT22;8078;47.822;9.402;2022-11-03T11:27:52;9.10;99.90
15959;DHT22;8078;47.822;9.402;2022-11-03T11:37:55;9.10;99.90
15959;DHT22;8078;47.822;9.402;2022-11-03T11:48:30;8.70;99.90
15959;DHT22;8078;47.822;9.402;2022-11-03T11:50:56;8.70;99.90
15959;DHT22;8078;47.822;9.402;2022-11-03T11:53:22;8.60;99.90
15959;DHT22;8078;47.822;9.402;2022-11-03T11:55:54;8.50;99.90
15959;DHT22;8078;47.822;9.402;2022-11-03T11:58:25;8.50;99.90
15959;DHT22;8078;47.822;9.402;2022-11-03T12:00:59;8.40;99.90
15959;DHT22;8078;47.822;9.402;2022-11-03T12:03:35;8.40;99.90
15959;DHT22;8078;47.822;9.402;2022-11-03T12:06:01;8.40;99.90
15959;DHT22;8078;47.822;9.402;2022-11-03T12:08:28;8.40;99.90
15959;DHT22;8078;47.822;9.402;2022-11-03T12:10:59;8.40;99.90
15959;DHT22;8078;47.822;9.402;2022-11-03T12:13:45;8.60;99.90
15959;DHT22;8078;47.822;9.402;2022-11-03T12:18:56;8.60;99.90
15959;DHT22;8078;47.822;9.402;2022-11-03T12:21:47;8.70;99.90
15959;DHT22;8078;47.822;9.402;2022-11-03T12:24:38;8.80;99.90
15959;DHT22;8078;47.822;9.402;2022-11-03T12:29:48;9.40;99.90
15959;DHT22;8078;47.822;9.402;2022-11-03T12:32:13;9.60;99.90
15959;DHT22;8078;47.822;9.402;2022-11-03T12:34:39;9.70;99.90
15959;DHT22;8078;47.822;9.402;2022-11-03T12:37:04;9.90;99.90
15959;DHT22;8078;47.822;9.402;2022-11-03T12:39:30;10.00;99.90
15959;DHT22;8078;47.822;9.402;2022-11-03T12:41:55;10.00;99.90
15959;DHT22;8078;47.822;9.402;2022-11-03T12:44:21;10.10;99.90
15959;DHT22;8078;47.822;9.402;2022-11-03T12:46:46;10.10;99.90
15959;DHT22;8078;47.822;9.402;2022-11-03T12:49:12;10.20;99.90
15959;DHT22;8078;47.822;9.402;2022-11-03T12:51:38;10.20;99.90
15959;DHT22;8078;47.822;9.402;2022-11-03T12:54:03;10.10;99.90
15959;DHT22;8078;47.822;9.402;2022-11-03T12:56:29;10.10;99.90
15959;DHT22;8078;47.822;9.402;2022-11-03T12:58:54;10.30;99.90
15959;DHT22;8078;47.822;9.402;2022-11-03T13:01:20;10.20;99.90
15959;DHT22;8078;47.822;9.402;2022-11-03T13:03:46;10.10;99.90
15959;DHT22;8078;47.822;9.402;2022-11-03T13:06:11;10.30;99.90
15959;DHT22;8078;47.822;9.402;2022-11-03T13:08:39;10.30;99.90
15959;DHT22;8078;47.822;9.402;2022-11-03T13:11:05;10.40;99.90
15959;DHT22;8078;47.822;9.402;2022-11-03T13:13:50;10.50;99.90
15959;DHT22;8078;47.822;9.402;2022-11-03T13:16:15;10.60;99.90
15959;DHT22;8078;47.822;9.402;2022-11-03T13:18:41;10.60;99.90
15959;DHT22;8078;47.822;9.402;2022-11-03T13:21:06;10.60;99.90
15959;DHT22;8078;47.822;9.402;2022-11-03T13:23:32;10.60;99.90
15959;DHT22;8078;47.822;9.402;2022-11-03T13:25:57;10.60;99.90
15959;DHT22;8078;47.822;9.402;2022-11-03T13:28:23;10.70;99.90
15959;DHT22;8078;47.822;9.402;2022-11-03T13:30:48;10.80;99.90
15959;DHT22;8078;47.822;9.402;2022-11-03T13:33:14;10.90;99.90
15959;DHT22;8078;47.822;9.402;2022-11-03T13:35:39;11.10;99.90
15959;DHT22;8078;47.822;9.402;2022-11-03T13:38:05;11.20;99.90
15959;DHT22;8078;47.822;9.402;2022-11-03T13:40:30;11.30;99.90
15959;DHT22;8078;47.822;9.402;2022-11-03T13:42:56;11.40;99.90
15959;DHT22;8078;47.822;9.402;2022-11-03T13:45:21;11.50;99.90
15959;DHT22;8078;47.822;9.402;2022-11-03T13:47:48;11.50;99.90
15959;DHT22;8078;47.822;9.402;2022-11-03T13:50:13;11.60;99.90
15959;DHT22;8078;47.822;9.402;2022-11-03T13:52:39;11.60;99.90
15959;DHT22;8078;47.822;9.402;2022-11-03T13:55:05;11.60;99.90
15959;DHT22;8078;47.822;9.402;2022-11-03T13:57:30;11.70;99.90
15959;DHT22;8078;47.822;9.402;2022-11-03T13:59:56;11.70;99.90
15959;DHT22;8078;47.822;9.402;2022-11-03T14:02:22;11.70;99.90
15959;DHT22;8078;47.822;9.402;2022-11-03T14:04:48;11.80;99.90
15959;DHT22;8078;47.822;9.402;2022-11-03T14:07:13;11.70;99.90
15959;DHT22;8078;47.822;9.402;2022-11-03T14:09:39;11.60;99.90
15959;DHT22;8078;47.822;9.402;2022-11-03T14:12:05;11.40;99.90
15959;DHT22;8078;47.822;9.402;2022-11-03T14:14:49;11.40;99.90
15959;DHT22;8078;47.822;9.402;2022-11-03T14:17:15;10.70;99.90
15959;DHT22;8078;47.822;9.402;2022-11-03T14:19:40;9.80;99.90
15959;DHT22;8078;47.822;9.402;2022-11-03T14:22:06;9.30;99.90
15959;DHT22;8078;47.822;9.402;2022-11-03T14:24:32;9.30;99.90
15959;DHT22;8078;47.822;9.402;2022-11-03T14:26:57;9.50;99.90
15959;DHT22;8078;47.822;9.402;2022-11-03T14:29:23;9.80;99.90
15959;DHT22;8078;47.822;9.402;2022-11-03T14:31:48;9.80;99.90
15959;DHT22;8078;47.822;9.402;2022-11-03T14:34:14;9.80;99.90
15959;DHT22;8078;47.822;9.402;2022-11-03T14:36:39;9.80;99.90
15959;DHT22;8078;47.822;9.402;2022-11-03T14:39:05;9.90;99.90
15959;DHT22;8078;47.822;9.402;2022-11-03T14:41:31;10.00;99.90
15959;DHT22;8078;47.822;9.402;2022-11-03T14:44:15;10.10;99.90
15959;DHT22;8078;47.822;9.402;2022-11-03T14:46:40;10.20;99.90
15959;DHT22;8078;47.822;9.402;2022-11-03T14:49:06;10.30;99.90
15959;DHT22;8078;47.822;9.402;2022-11-03T14:51:32;10.40;99.90
15959;DHT22;8078;47.822;9.402;2022-11-03T14:53:58;10.40;99.90
15959;DHT22;8078;47.822;9.402;2022-11-03T14:56:24;10.50;99.90
15959;DHT22;8078;47.822;9.402;2022-11-03T14:58:49;10.50;99.90
15959;DHT22;8078;47.822;9.402;2022-11-03T15:01:16;10.40;99.90
15959;DHT22;8078;47.822;9.402;2022-11-03T15:03:42;10.30;99.90
15959;DHT22;8078;47.822;9.402;2022-11-03T15:06:08;10.20;99.90
15959;DHT22;8078;47.822;9.402;2022-11-03T15:08:34;10.20;99.90
15959;DHT22;8078;47.822;9.402;2022-11-03T15:10:59;10.20;99.90
15959;DHT22;8078;47.822;9.402;2022-11-03T15:13:25;10.20;99.90
15959;DHT22;8078;47.822;9.402;2022-11-03T15:15:50;10.30;99.90
15959;DHT22;8078;47.822;9.402;2022-11-03T15:18:16;10.30;99.90
15959;DHT22;8078;47.822;9.402;2022-11-03T15:20:42;10.30;99.90
15959;DHT22;8078;47.822;9.402;2022-11-03T15:23:07;10.30;99.90
15959;DHT22;8078;47.822;9.402;2022-11-03T15:25:33;10.30;99.90
15959;DHT22;8078;47.822;9.402;2022-11-03T15:27:59;10.40;99.90
15959;DHT22;8078;47.822;9.402;2022-11-03T15:30:25;10.40;99.90
15959;DHT22;8078;47.822;9.402;2022-11-03T15:32:51;10.40;99.90
15959;DHT22;8078;47.822;9.402;2022-11-03T15:35:17;10.40;99.90
15959;DHT22;8078;47.822;9.402;2022-11-03T15:37:43;10.40;99.90
15959;DHT22;8078;47.822;9.402;2022-11-03T15:40:12;10.40;99.90
15959;DHT22;8078;47.822;9.402;2022-11-03T15:42:38;10.40;99.90
15959;DHT22;8078;47.822;9.402;2022-11-03T15:45:12;10.50;99.90
15959;DHT22;8078;47.822;9.402;2022-11-03T15:47:37;10.40;99.90
15959;DHT22;8078;47.822;9.402;2022-11-03T15:50:04;10.40;99.90
15959;DHT22;8078;47.822;9.402;2022-11-03T15:52:30;10.40;99.90
15959;DHT22;8078;47.822;9.402;2022-11-03T15:54:55;10.40;99.90
15959;DHT22;8078;47.822;9.402;2022-11-03T15:57:21;10.40;99.90
15959;DHT22;8078;47.822;9.402;2022-11-03T15:59:46;10.40;99.90
15959;DHT22;8078;47.822;9.402;2022-11-03T16:02:12;10.40;99.90
15959;DHT22;8078;47.822;9.402;2022-11-03T16:04:38;10.40;99.90
15959;DHT22;8078;47.822;9.402;2022-11-03T16:07:03;10.30;99.90
15959;DHT22;8078;47.822;9.402;2022-11-03T16:09:29;10.30;99.90
15959;DHT22;8078;47.822;9.402;2022-11-03T16:11:54;10.30;99.90
15959;DHT22;8078;47.822;9.402;2022-11-03T16:14:20;10.20;99.90
15959;DHT22;8078;47.822;9.402;2022-11-03T16:16:45;10.20;99.90
15959;DHT22;8078;47.822;9.402;2022-11-03T16:19:11;10.10;99.90
15959;DHT22;8078;47.822;9.402;2022-11-03T16:21:37;10.10;99.90
15959;DHT22;8078;47.822;9.402;2022-11-03T16:24:03;10.00;99.90
15959;DHT22;8078;47.822;9.402;2022-11-03T16:26:29;10.00;99.90
15959;DHT22;8078;47.822;9.402;2022-11-03T16:28:59;9.90;99.90
15959;DHT22;8078;47.822;9.402;2022-11-03T16:31:25;9.90;99.90
15959;DHT22;8078;47.822;9.402;2022-11-03T16:33:50;9.90;99.90
15959;DHT22;8078;47.822;9.402;2022-11-03T16:36:16;10.10;99.90
15959;DHT22;8078;47.822;9.402;2022-11-03T16:38:43;10.20;99.90
15959;DHT22;8078;47.822;9.402;2022-11-03T16:41:09;10.20;99.90
15959;DHT22;8078;47.822;9.402;2022-11-03T16:43:34;10.20;99.90
15959;DHT22;8078;47.822;9.402;2022-11-03T16:46:00;10.10;99.90
15959;DHT22;8078;47.822;9.402;2022-11-03T16:48:25;10.20;99.90
15959;DHT22;8078;47.822;9.402;2022-11-03T16:50:51;10.30;99.90
15959;DHT22;8078;47.822;9.402;2022-11-03T16:53:18;10.40;99.90
15959;DHT22;8078;47.822;9.402;2022-11-03T16:55:43;10.60;99.90